sensor_id;sensor_type;location;lat;lon;timestamp;temperature;humidity
17762;DHT22;9005;48.838;10.112;2023-08-12T00:00:10;21.20;99.90
17762;DHT22;9005;48.838;10.112;2023-08-12T00:02:37;21.20;99.90
17762;DHT22;9005;48.838;10.112;2023-08-12T00:05:05;21.20;99.90
17762;DHT22;9005;48.838;10.112;2023-08-12T00:07:32;21.10;99.90
17762;DHT22;9005;48.838;10.112;2023-08-12T00:09:59;21.10;99.90
17762;DHT22;9005;48.838;10.112;2023-08-12T00:12:27;21.10;99.90
17762;DHT22;9005;48.838;10.112;2023-08-12T00:14:54;21.00;99.90
17762;DHT22;9005;48.838;10.112;2023-08-12T00:17:22;20.90;99.90
17762;DHT22;9005;48.838;10.112;2023-08-12T00:19:48;21.00;99.90
17762;DHT22;9005;48.838;10.112;2023-08-12T00:24:42;20.90;99.90
17762;DHT22;9005;48.838;10.112;2023-08-12T00:27:09;20.90;99.90
17762;DHT22;9005;48.838;10.112;2023-08-12T00:29:38;20.80;99.90
17762;DHT22;9005;48.838;10.112;2023-08-12T00:32:04;20.80;99.90
17762;DHT22;9005;48.838;10.112;2023-08-12T00:34:31;20.80;99.90
17762;DHT22;9005;48.838;10.112;2023-08-12T00:36:58;20.70;99.90
17762;DHT22;9005;48.838;10.112;2023-08-12T00:39:25;20.70;99.90
17762;DHT22;9005;48.838;10.112;2023-08-12T00:41:52;20.60;99.90
17762;DHT22;9005;48.838;10.112;2023-08-12T00:44:18;20.50;99.90
17762;DHT22;9005;48.838;10.112;2023-08-12T00:46:47;20.50;99.90
17762;DHT22;9005;48.838;10.112;2023-08-12T00:49:15;20.40;99.90
17762;DHT22;9005;48.838;10.112;2023-08-12T00:51:43;20.40;99.90
17762;DHT22;9005;48.838;10.112;2023-08-12T00:54:13;20.30;99.90
17762;DHT22;9005;48.838;10.112;2023-08-12T00:56:41;20.30;1.00
17762;DHT22;9005;48.838;10.112;2023-08-12T00:59:08;20.20;1.00
17762;DHT22;9005;48.838;10.112;2023-08-12T01:01:37;20.20;1.00
17762;DHT22;9005;48.838;10.112;2023-08-12T01:04:05;20.20;1.00
17762;DHT22;9005;48.838;10.112;2023-08-12T01:06:32;20.10;1.00
17762;DHT22;9005;48.838;10.112;2023-08-12T01:09:00;20.10;1.00
17762;DHT22;9005;48.838;10.112;2023-08-12T01:11:29;20.10;1.00
17762;DHT22;9005;48.838;10.112;2023-08-12T01:14:03;20.00;1.00
17762;DHT22;9005;48.838;10.112;2023-08-12T01:16:35;20.00;1.00
17762;DHT22;9005;48.838;10.112;2023-08-12T01:19:06;19.90;1.00
17762;DHT22;9005;48.838;10.112;2023-08-12T01:21:40;19.80;1.00
17762;DHT22;9005;48.838;10.112;2023-08-12T01:24:09;19.80;22.20
17762;DHT22;9005;48.838;10.112;2023-08-12T01:26:35;19.80;15.90
17762;DHT22;9005;48.838;10.112;2023-08-12T01:29:02;19.80;32.60
17762;DHT22;9005;48.838;10.112;2023-08-12T01:31:32;19.80;41.50
17762;DHT22;9005;48.838;10.112;2023-08-12T01:34:06;19.80;34.60
17762;DHT22;9005;48.838;10.112;2023-08-12T01:36:36;19.80;77.80
17762;DHT22;9005;48.838;10.112;2023-08-12T01:39:05;19.80;86.20
17762;DHT22;9005;48.838;10.112;2023-08-12T01:41:34;19.70;79.80
17762;DHT22;9005;48.838;10.112;2023-08-12T01:44:02;19.70;92.60
17762;DHT22;9005;48.838;10.112;2023-08-12T01:46:29;19.70;99.90
17762;DHT22;9005;48.838;10.112;2023-08-12T01:48:57;19.70;99.90
17762;DHT22;9005;48.838;10.112;2023-08-12T01:51:24;19.60;99.90
17762;DHT22;9005;48.838;10.112;2023-08-12T01:53:50;19.60;99.90
17762;DHT22;9005;48.838;10.112;2023-08-12T01:56:17;19.60;99.90
17762;DHT22;9005;48.838;10.112;2023-08-12T01:58:45;19.50;99.90
17762;DHT22;9005;48.838;10.112;2023-08-12T02:01:12;19.40;99.90
17762;DHT22;9005;48.838;10.112;2023-08-12T02:03:39;19.40;99.90
17762;DHT22;9005;48.838;10.112;2023-08-12T02:06:06;19.40;99.90
17762;DHT22;9005;48.838;10.112;2023-08-12T02:08:32;19.30;99.90
17762;DHT22;9005;48.838;10.112;2023-08-12T02:10:59;19.30;99.90
17762;DHT22;9005;48.838;10.112;2023-08-12T02:13:26;19.30;99.90
17762;DHT22;9005;48.838;10.112;2023-08-12T02:15:54;19.30;99.90
17762;DHT22;9005;48.838;10.112;2023-08-12T02:18:21;19.30;99.90
17762;DHT22;9005;48.838;10.112;2023-08-12T02:20:48;19.30;99.90
17762;DHT22;9005;48.838;10.112;2023-08-12T02:23:15;19.30;99.90
17762;DHT22;9005;48.838;10.112;2023-08-12T02:25:41;19.30;99.90
17762;DHT22;9005;48.838;10.112;2023-08-12T02:28:08;19.30;99.90
17762;DHT22;9005;48.838;10.112;2023-08-12T02:30:35;19.20;99.90
17762;DHT22;9005;48.838;10.112;2023-08-12T02:33:04;19.20;99.90
17762;DHT22;9005;48.838;10.112;2023-08-12T02:35:30;19.10;99.90
17762;DHT22;9005;48.838;10.112;2023-08-12T02:37:58;19.10;99.90
17762;DHT22;9005;48.838;10.112;2023-08-12T02:40:25;19.00;99.90
17762;DHT22;9005;48.838;10.112;2023-08-12T02:42:52;19.00;99.90
17762;DHT22;9005;48.838;10.112;2023-08-12T02:45:19;19.00;99.90
17762;DHT22;9005;48.838;10.112;2023-08-12T02:47:45;19.00;99.90
17762;DHT22;9005;48.838;10.112;2023-08-12T02:50:14;18.90;99.90
17762;DHT22;9005;48.838;10.112;2023-08-12T02:52:40;18.90;99.90
17762;DHT22;9005;48.838;10.112;2023-08-12T02:55:08;18.80;99.90
17762;DHT22;9005;48.838;10.112;2023-08-12T02:57:35;18.80;99.90
17762;DHT22;9005;48.838;10.112;2023-08-12T03:00:02;18.80;99.90
17762;DHT22;9005;48.838;10.112;2023-08-12T03:02:30;18.80;99.90
17762;DHT22;9005;48.838;10.112;2023-08-12T03:04:57;18.80;1.00
17762;DHT22;9005;48.838;10.112;2023-08-12T03:07:25;18.80;1.00
17762;DHT22;9005;48.838;10.112;2023-08-12T03:09:52;18.80;99.90
17762;DHT22;9005;48.838;10.112;2023-08-12T03:12:19;18.80;99.90
17762;DHT22;9005;48.838;10.112;2023-08-12T03:14:46;18.80;99.90
17762;DHT22;9005;48.838;10.112;2023-08-12T03:17:12;18.80;1.00
17762;DHT22;9005;48.838;10.112;2023-08-12T03:19:39;18.70;1.00
17762;DHT22;9005;48.838;10.112;2023-08-12T03:22:06;18.70;1.00
17762;DHT22;9005;48.838;10.112;2023-08-12T03:24:34;18.70;1.00
17762;DHT22;9005;48.838;10.112;2023-08-12T03:27:01;18.70;1.00
17762;DHT22;9005;48.838;10.112;2023-08-12T03:29:28;18.80;1.00
17762;DHT22;9005;48.838;10.112;2023-08-12T03:31:55;18.60;1.00
17762;DHT22;9005;48.838;10.112;2023-08-12T03:34:21;18.60;1.00
17762;DHT22;9005;48.838;10.112;2023-08-12T03:36:48;18.70;1.00
17762;DHT22;9005;48.838;10.112;2023-08-12T03:39:16;18.60;1.00
17762;DHT22;9005;48.838;10.112;2023-08-12T03:41:44;18.70;1.00
17762;DHT22;9005;48.838;10.112;2023-08-12T03:44:11;18.70;1.00
17762;DHT22;9005;48.838;10.112;2023-08-12T03:46:37;18.70;1.00
17762;DHT22;9005;48.838;10.112;2023-08-12T03:49:04;18.80;1.00
17762;DHT22;9005;48.838;10.112;2023-08-12T03:51:31;18.70;1.00
17762;DHT22;9005;48.838;10.112;2023-08-12T03:53:58;18.70;1.00
17762;DHT22;9005;48.838;10.112;2023-08-12T03:56:25;18.80;1.00
17762;DHT22;9005;48.838;10.112;2023-08-12T03:58:53;18.70;1.00
17762;DHT22;9005;48.838;10.112;2023-08-12T04:01:20;18.70;1.00
17762;DHT22;9005;48.838;10.112;2023-08-12T04:03:47;18.70;1.00
17762;DHT22;9005;48.838;10.112;2023-08-12T04:06:13;18.70;1.00
17762;DHT22;9005;48.838;10.112;2023-08-12T04:08:40;18.80;1.00
17762;DHT22;9005;48.838;10.112;2023-08-12T04:11:07;18.80;1.00
17762;DHT22;9005;48.838;10.112;2023-08-12T04:13:34;18.80;1.00
17762;DHT22;9005;48.838;10.112;2023-08-12T04:16:02;18.90;1.00
17762;DHT22;9005;48.838;10.112;2023-08-12T04:18:29;18.90;99.90
17762;DHT22;9005;48.838;10.112;2023-08-12T04:20:55;18.80;99.90
17762;DHT22;9005;48.838;10.112;2023-08-12T04:23:22;19.00;99.90
17762;DHT22;9005;48.838;10.112;2023-08-12T04:25:49;19.20;99.90
17762;DHT22;9005;48.838;10.112;2023-08-12T04:28:16;19.20;99.90
17762;DHT22;9005;48.838;10.112;2023-08-12T04:30:44;19.20;99.90
17762;DHT22;9005;48.838;10.112;2023-08-12T04:33:12;19.30;99.90
17762;DHT22;9005;48.838;10.112;2023-08-12T04:35:40;19.30;99.90
17762;DHT22;9005;48.838;10.112;2023-08-12T04:38:06;19.30;99.90
17762;DHT22;9005;48.838;10.112;2023-08-12T04:40:33;19.30;99.90
17762;DHT22;9005;48.838;10.112;2023-08-12T04:43:00;19.20;99.90
17762;DHT22;9005;48.838;10.112;2023-08-12T04:45:27;19.30;99.90
17762;DHT22;9005;48.838;10.112;2023-08-12T04:47:55;19.30;99.90
17762;DHT22;9005;48.838;10.112;2023-08-12T04:50:23;19.30;99.90
17762;DHT22;9005;48.838;10.112;2023-08-12T04:52:50;19.30;99.90
17762;DHT22;9005;48.838;10.112;2023-08-12T04:55:17;19.40;99.90
17762;DHT22;9005;48.838;10.112;2023-08-12T04:57:44;19.40;99.90
17762;DHT22;9005;48.838;10.112;2023-08-12T05:00:11;19.70;99.90
17762;DHT22;9005;48.838;10.112;2023-08-12T05:02:38;19.50;99.90
17762;DHT22;9005;48.838;10.112;2023-08-12T05:05:05;19.50;99.90
17762;DHT22;9005;48.838;10.112;2023-08-12T05:07:33;19.50;99.90
17762;DHT22;9005;48.838;10.112;2023-08-12T05:10:00;19.50;99.90
17762;DHT22;9005;48.838;10.112;2023-08-12T05:12:27;19.60;99.90
17762;DHT22;9005;48.838;10.112;2023-08-12T05:14:54;19.60;99.90
17762;DHT22;9005;48.838;10.112;2023-08-12T05:17:21;19.60;99.90
17762;DHT22;9005;48.838;10.112;2023-08-12T05:19:48;19.70;99.90
17762;DHT22;9005;48.838;10.112;2023-08-12T05:22:15;19.80;99.90
17762;DHT22;9005;48.838;10.112;2023-08-12T05:24:43;19.80;99.90
17762;DHT22;9005;48.838;10.112;2023-08-12T05:27:10;20.00;99.90
17762;DHT22;9005;48.838;10.112;2023-08-12T05:29:37;19.80;99.90
17762;DHT22;9005;48.838;10.112;2023-08-12T05:32:04;19.90;99.90
17762;DHT22;9005;48.838;10.112;2023-08-12T05:34:31;19.90;99.90
17762;DHT22;9005;48.838;10.112;2023-08-12T05:36:58;19.90;99.90
17762;DHT22;9005;48.838;10.112;2023-08-12T05:39:25;20.60;99.90
17762;DHT22;9005;48.838;10.112;2023-08-12T05:41:53;20.00;99.90
17762;DHT22;9005;48.838;10.112;2023-08-12T05:44:19;20.00;90.50
17762;DHT22;9005;48.838;10.112;2023-08-12T05:46:46;20.00;99.90
17762;DHT22;9005;48.838;10.112;2023-08-12T05:49:13;20.10;64.70
17762;DHT22;9005;48.838;10.112;2023-08-12T05:51:40;20.10;71.00
17762;DHT22;9005;48.838;10.112;2023-08-12T05:54:07;20.10;45.90
17762;DHT22;9005;48.838;10.112;2023-08-12T05:56:33;20.10;75.30
17762;DHT22;9005;48.838;10.112;2023-08-12T05:59:01;20.10;90.00
17762;DHT22;9005;48.838;10.112;2023-08-12T06:03:55;20.20;99.90
17762;DHT22;9005;48.838;10.112;2023-08-12T06:06:22;20.10;52.00
17762;DHT22;9005;48.838;10.112;2023-08-12T06:08:49;20.10;71.60
17762;DHT22;9005;48.838;10.112;2023-08-12T06:11:15;20.10;83.40
17762;DHT22;9005;48.838;10.112;2023-08-12T06:23:32;20.40;1.00
17762;DHT22;9005;48.838;10.112;2023-08-12T06:25:59;20.40;1.00
17762;DHT22;9005;48.838;10.112;2023-08-12T06:28:25;20.30;1.00
17762;DHT22;9005;48.838;10.112;2023-08-12T06:30:52;20.30;21.70
17762;DHT22;9005;48.838;10.112;2023-08-12T06:33:20;20.40;35.70
17762;DHT22;9005;48.838;10.112;2023-08-12T06:35:47;20.50;99.90
17762;DHT22;9005;48.838;10.112;2023-08-12T06:38:14;20.50;46.20
17762;DHT22;9005;48.838;10.112;2023-08-12T06:40:41;20.70;1.00
17762;DHT22;9005;48.838;10.112;2023-08-12T06:43:07;20.60;1.00
17762;DHT22;9005;48.838;10.112;2023-08-12T06:45:34;20.80;1.00
17762;DHT22;9005;48.838;10.112;2023-08-12T06:48:01;20.80;1.00
17762;DHT22;9005;48.838;10.112;2023-08-12T06:50:30;21.00;1.00
17762;DHT22;9005;48.838;10.112;2023-08-12T06:52:58;21.10;1.00
17762;DHT22;9005;48.838;10.112;2023-08-12T06:55:25;21.20;1.00
17762;DHT22;9005;48.838;10.112;2023-08-12T06:57:52;21.30;1.00
17762;DHT22;9005;48.838;10.112;2023-08-12T07:00:19;21.40;1.00
17762;DHT22;9005;48.838;10.112;2023-08-12T07:02:45;21.60;1.00
17762;DHT22;9005;48.838;10.112;2023-08-12T07:05:12;21.70;1.00
17762;DHT22;9005;48.838;10.112;2023-08-12T07:07:40;21.90;1.00
17762;DHT22;9005;48.838;10.112;2023-08-12T07:10:07;22.10;1.00
17762;DHT22;9005;48.838;10.112;2023-08-12T07:12:34;22.20;99.90
17762;DHT22;9005;48.838;10.112;2023-08-12T07:15:01;22.30;99.90
17762;DHT22;9005;48.838;10.112;2023-08-12T07:17:28;22.40;99.90
17762;DHT22;9005;48.838;10.112;2023-08-12T07:19:55;22.50;99.90
17762;DHT22;9005;48.838;10.112;2023-08-12T07:22:22;22.50;99.90
17762;DHT22;9005;48.838;10.112;2023-08-12T07:24:50;22.50;99.90
17762;DHT22;9005;48.838;10.112;2023-08-12T07:27:17;22.50;99.90
17762;DHT22;9005;48.838;10.112;2023-08-12T07:29:45;22.50;99.90
17762;DHT22;9005;48.838;10.112;2023-08-12T07:32:12;22.50;99.90
17762;DHT22;9005;48.838;10.112;2023-08-12T07:34:39;22.60;99.90
17762;DHT22;9005;48.838;10.112;2023-08-12T07:37:05;22.50;99.90
17762;DHT22;9005;48.838;10.112;2023-08-12T07:39:32;22.60;99.90
17762;DHT22;9005;48.838;10.112;2023-08-12T07:42:00;22.60;99.90
17762;DHT22;9005;48.838;10.112;2023-08-12T07:44:27;22.70;99.90
17762;DHT22;9005;48.838;10.112;2023-08-12T07:46:54;22.70;99.90
17762;DHT22;9005;48.838;10.112;2023-08-12T07:49:21;22.90;99.90
17762;DHT22;9005;48.838;10.112;2023-08-12T07:51:48;22.90;99.90
17762;DHT22;9005;48.838;10.112;2023-08-12T07:54:15;23.00;99.90
17762;DHT22;9005;48.838;10.112;2023-08-12T07:56:41;23.10;99.90
17762;DHT22;9005;48.838;10.112;2023-08-12T07:59:10;23.20;99.90
17762;DHT22;9005;48.838;10.112;2023-08-12T08:01:36;23.30;99.90
17762;DHT22;9005;48.838;10.112;2023-08-12T08:04:04;23.40;99.90
17762;DHT22;9005;48.838;10.112;2023-08-12T08:06:31;23.40;99.90
17762;DHT22;9005;48.838;10.112;2023-08-12T08:08:57;23.50;99.90
17762;DHT22;9005;48.838;10.112;2023-08-12T08:11:26;23.50;99.90
17762;DHT22;9005;48.838;10.112;2023-08-12T08:13:53;23.40;99.90
17762;DHT22;9005;48.838;10.112;2023-08-12T08:16:21;23.30;99.90
17762;DHT22;9005;48.838;10.112;2023-08-12T08:18:48;23.30;99.90
17762;DHT22;9005;48.838;10.112;2023-08-12T08:21:15;23.10;99.90
17762;DHT22;9005;48.838;10.112;2023-08-12T08:26:09;23.00;99.90
17762;DHT22;9005;48.838;10.112;2023-08-12T08:28:36;23.10;99.90
17762;DHT22;9005;48.838;10.112;2023-08-12T08:31:02;23.20;99.90
17762;DHT22;9005;48.838;10.112;2023-08-12T08:33:31;23.70;99.90
17762;DHT22;9005;48.838;10.112;2023-08-12T08:35:57;23.60;99.90
17762;DHT22;9005;48.838;10.112;2023-08-12T08:38:24;24.00;99.90
17762;DHT22;9005;48.838;10.112;2023-08-12T08:40:51;24.20;99.90
17762;DHT22;9005;48.838;10.112;2023-08-12T08:43:20;24.50;99.90
17762;DHT22;9005;48.838;10.112;2023-08-12T08:45:49;24.70;96.50
17762;DHT22;9005;48.838;10.112;2023-08-12T08:48:19;25.00;95.30
17762;DHT22;9005;48.838;10.112;2023-08-12T08:50:48;25.20;88.80
17762;DHT22;9005;48.838;10.112;2023-08-12T08:53:16;25.50;63.70
17762;DHT22;9005;48.838;10.112;2023-08-12T08:55:44;25.80;29.90
17762;DHT22;9005;48.838;10.112;2023-08-12T08:58:11;26.00;22.40
17762;DHT22;9005;48.838;10.112;2023-08-12T09:00:39;26.30;1.00
17762;DHT22;9005;48.838;10.112;2023-08-12T09:03:06;26.80;1.00
17762;DHT22;9005;48.838;10.112;2023-08-12T09:05:35;26.80;1.00
17762;DHT22;9005;48.838;10.112;2023-08-12T09:08:05;27.10;1.00
17762;DHT22;9005;48.838;10.112;2023-08-12T09:10:37;27.40;1.00
17762;DHT22;9005;48.838;10.112;2023-08-12T09:13:05;27.60;1.00
17762;DHT22;9005;48.838;10.112;2023-08-12T09:15:34;27.80;1.00
17762;DHT22;9005;48.838;10.112;2023-08-12T09:18:01;28.00;1.00
17762;DHT22;9005;48.838;10.112;2023-08-12T09:20:27;28.10;1.00
17762;DHT22;9005;48.838;10.112;2023-08-12T09:22:58;28.30;1.00
17762;DHT22;9005;48.838;10.112;2023-08-12T09:25:26;28.50;1.00
17762;DHT22;9005;48.838;10.112;2023-08-12T09:27:54;28.70;1.00
17762;DHT22;9005;48.838;10.112;2023-08-12T09:30:22;28.80;1.00
17762;DHT22;9005;48.838;10.112;2023-08-12T09:32:58;28.90;1.00
17762;DHT22;9005;48.838;10.112;2023-08-12T09:35:32;29.20;1.00
17762;DHT22;9005;48.838;10.112;2023-08-12T09:38:00;29.30;1.00
17762;DHT22;9005;48.838;10.112;2023-08-12T09:40:29;29.40;1.00
17762;DHT22;9005;48.838;10.112;2023-08-12T09:42:56;29.30;1.00
17762;DHT22;9005;48.838;10.112;2023-08-12T09:45:24;29.30;1.00
17762;DHT22;9005;48.838;10.112;2023-08-12T09:47:51;29.20;1.00
17762;DHT22;9005;48.838;10.112;2023-08-12T09:50:21;29.30;1.00
17762;DHT22;9005;48.838;10.112;2023-08-12T09:52:48;29.30;1.00
17762;DHT22;9005;48.838;10.112;2023-08-12T09:55:16;29.30;1.00
17762;DHT22;9005;48.838;10.112;2023-08-12T09:57:44;29.30;1.00
17762;DHT22;9005;48.838;10.112;2023-08-12T10:00:15;29.40;1.00
17762;DHT22;9005;48.838;10.112;2023-08-12T10:02:44;29.60;1.00
17762;DHT22;9005;48.838;10.112;2023-08-12T10:05:12;30.00;1.00
17762;DHT22;9005;48.838;10.112;2023-08-12T10:07:43;30.10;1.00
17762;DHT22;9005;48.838;10.112;2023-08-12T10:10:12;30.30;1.00
17762;DHT22;9005;48.838;10.112;2023-08-12T10:12:39;30.30;1.00
17762;DHT22;9005;48.838;10.112;2023-08-12T10:15:09;30.20;1.00
17762;DHT22;9005;48.838;10.112;2023-08-12T10:17:37;30.20;1.00
17762;DHT22;9005;48.838;10.112;2023-08-12T10:20:05;30.20;1.00
17762;DHT22;9005;48.838;10.112;2023-08-12T10:22:35;30.60;1.00
17762;DHT22;9005;48.838;10.112;2023-08-12T10:25:02;31.10;1.00
17762;DHT22;9005;48.838;10.112;2023-08-12T10:27:30;31.50;99.90
17762;DHT22;9005;48.838;10.112;2023-08-12T10:29:57;31.60;99.90
17762;DHT22;9005;48.838;10.112;2023-08-12T10:32:25;31.50;99.90
17762;DHT22;9005;48.838;10.112;2023-08-12T10:34:55;31.40;99.90
17762;DHT22;9005;48.838;10.112;2023-08-12T10:37:23;31.40;1.00
17762;DHT22;9005;48.838;10.112;2023-08-12T10:39:52;32.00;1.00
17762;DHT22;9005;48.838;10.112;2023-08-12T10:42:41;33.00;99.90
17762;DHT22;9005;48.838;10.112;2023-08-12T10:45:09;34.30;99.90
17762;DHT22;9005;48.838;10.112;2023-08-12T10:47:40;35.30;99.90
17762;DHT22;9005;48.838;10.112;2023-08-12T10:50:16;36.10;99.90
17762;DHT22;9005;48.838;10.112;2023-08-12T10:52:43;37.20;99.90
17762;DHT22;9005;48.838;10.112;2023-08-12T10:55:18;38.10;99.90
17762;DHT22;9005;48.838;10.112;2023-08-12T10:57:45;38.90;99.90
17762;DHT22;9005;48.838;10.112;2023-08-12T11:00:14;39.00;99.90
17762;DHT22;9005;48.838;10.112;2023-08-12T11:02:46;38.80;99.90
17762;DHT22;9005;48.838;10.112;2023-08-12T11:05:15;38.30;99.90
17762;DHT22;9005;48.838;10.112;2023-08-12T11:07:45;37.80;99.90
17762;DHT22;9005;48.838;10.112;2023-08-12T11:10:13;37.70;99.90
17762;DHT22;9005;48.838;10.112;2023-08-12T11:12:42;38.40;99.90
17762;DHT22;9005;48.838;10.112;2023-08-12T11:15:10;38.70;99.90
17762;DHT22;9005;48.838;10.112;2023-08-12T11:17:38;38.20;99.90
17762;DHT22;9005;48.838;10.112;2023-08-12T11:20:09;37.70;99.90
17762;DHT22;9005;48.838;10.112;2023-08-12T11:22:38;37.10;99.90
17762;DHT22;9005;48.838;10.112;2023-08-12T11:25:06;36.70;99.90
17762;DHT22;9005;48.838;10.112;2023-08-12T11:27:39;36.10;99.90
17762;DHT22;9005;48.838;10.112;2023-08-12T11:30:07;35.60;99.90
17762;DHT22;9005;48.838;10.112;2023-08-12T11:32:36;35.20;99.90
17762;DHT22;9005;48.838;10.112;2023-08-12T11:35:03;35.10;99.90
17762;DHT22;9005;48.838;10.112;2023-08-12T11:37:32;35.20;99.90
17762;DHT22;9005;48.838;10.112;2023-08-12T11:40:01;35.10;99.90
17762;DHT22;9005;48.838;10.112;2023-08-12T11:42:29;34.70;99.90
17762;DHT22;9005;48.838;10.112;2023-08-12T11:44:56;34.00;99.90
17762;DHT22;9005;48.838;10.112;2023-08-12T11:47:22;33.40;99.90
17762;DHT22;9005;48.838;10.112;2023-08-12T11:49:51;32.80;99.90
17762;DHT22;9005;48.838;10.112;2023-08-12T11:52:18;32.30;99.90
17762;DHT22;9005;48.838;10.112;2023-08-12T11:54:47;32.00;99.90
17762;DHT22;9005;48.838;10.112;2023-08-12T11:57:14;31.70;99.90
17762;DHT22;9005;48.838;10.112;2023-08-12T11:59:41;31.40;99.90
17762;DHT22;9005;48.838;10.112;2023-08-12T12:02:08;30.90;99.90
17762;DHT22;9005;48.838;10.112;2023-08-12T12:04:36;30.50;99.90
17762;DHT22;9005;48.838;10.112;2023-08-12T12:07:03;30.20;99.90
17762;DHT22;9005;48.838;10.112;2023-08-12T12:09:32;30.30;99.90
17762;DHT22;9005;48.838;10.112;2023-08-12T12:12:00;31.40;99.90
17762;DHT22;9005;48.838;10.112;2023-08-12T12:14:29;32.80;99.90
17762;DHT22;9005;48.838;10.112;2023-08-12T12:16:55;33.90;99.90
17762;DHT22;9005;48.838;10.112;2023-08-12T12:19:23;34.80;99.90
17762;DHT22;9005;48.838;10.112;2023-08-12T12:21:51;35.80;99.90
17762;DHT22;9005;48.838;10.112;2023-08-12T12:24:19;36.80;99.90
17762;DHT22;9005;48.838;10.112;2023-08-12T12:26:47;36.90;99.90
17762;DHT22;9005;48.838;10.112;2023-08-12T12:29:15;36.80;99.90
17762;DHT22;9005;48.838;10.112;2023-08-12T12:31:42;37.10;99.90
17762;DHT22;9005;48.838;10.112;2023-08-12T12:34:09;36.40;99.90
17762;DHT22;9005;48.838;10.112;2023-08-12T12:36:37;35.60;99.90
17762;DHT22;9005;48.838;10.112;2023-08-12T12:39:04;34.30;99.90
17762;DHT22;9005;48.838;10.112;2023-08-12T12:41:31;33.20;99.90
17762;DHT22;9005;48.838;10.112;2023-08-12T12:43:59;32.90;99.90
17762;DHT22;9005;48.838;10.112;2023-08-12T12:46:27;33.20;99.90
17762;DHT22;9005;48.838;10.112;2023-08-12T12:48:54;34.10;99.90
17762;DHT22;9005;48.838;10.112;2023-08-12T12:51:21;34.70;99.90
17762;DHT22;9005;48.838;10.112;2023-08-12T12:53:48;35.00;99.90
17762;DHT22;9005;48.838;10.112;2023-08-12T12:56:14;34.50;99.90
17762;DHT22;9005;48.838;10.112;2023-08-12T12:58:41;34.00;99.90
17762;DHT22;9005;48.838;10.112;2023-08-12T13:01:08;33.70;99.90
17762;DHT22;9005;48.838;10.112;2023-08-12T13:03:36;33.80;99.90
17762;DHT22;9005;48.838;10.112;2023-08-12T13:06:03;34.10;99.90
17762;DHT22;9005;48.838;10.112;2023-08-12T13:08:30;34.50;99.90
17762;DHT22;9005;48.838;10.112;2023-08-12T13:10:57;34.70;99.90
17762;DHT22;9005;48.838;10.112;2023-08-12T13:13:24;34.60;99.90
17762;DHT22;9005;48.838;10.112;2023-08-12T13:15:51;34.30;99.90
17762;DHT22;9005;48.838;10.112;2023-08-12T13:18:18;33.70;99.90
17762;DHT22;9005;48.838;10.112;2023-08-12T13:20:46;33.10;99.90
17762;DHT22;9005;48.838;10.112;2023-08-12T13:23:13;32.40;99.90
17762;DHT22;9005;48.838;10.112;2023-08-12T13:25:40;31.60;99.90
17762;DHT22;9005;48.838;10.112;2023-08-12T13:28:07;31.00;99.90
17762;DHT22;9005;48.838;10.112;2023-08-12T13:30:34;30.30;99.90
17762;DHT22;9005;48.838;10.112;2023-08-12T13:33:00;29.80;99.90
17762;DHT22;9005;48.838;10.112;2023-08-12T13:35:27;29.20;99.90
17762;DHT22;9005;48.838;10.112;2023-08-12T13:37:55;28.60;99.90
17762;DHT22;9005;48.838;10.112;2023-08-12T13:40:22;26.00;99.90
17762;DHT22;9005;48.838;10.112;2023-08-12T13:42:49;22.50;99.90
17762;DHT22;9005;48.838;10.112;2023-08-12T13:45:16;20.90;99.90
17762;DHT22;9005;48.838;10.112;2023-08-12T13:47:43;20.40;99.90
17762;DHT22;9005;48.838;10.112;2023-08-12T13:50:10;20.10;99.90
17762;DHT22;9005;48.838;10.112;2023-08-12T13:52:38;20.00;99.90
17762;DHT22;9005;48.838;10.112;2023-08-12T13:55:07;20.00;99.90
17762;DHT22;9005;48.838;10.112;2023-08-12T13:57:34;19.90;99.90
17762;DHT22;9005;48.838;10.112;2023-08-12T14:00:01;20.00;99.90
17762;DHT22;9005;48.838;10.112;2023-08-12T14:02:31;20.30;99.90
17762;DHT22;9005;48.838;10.112;2023-08-12T14:04:58;20.30;99.90
17762;DHT22;9005;48.838;10.112;2023-08-12T14:07:25;20.40;99.90
17762;DHT22;9005;48.838;10.112;2023-08-12T14:09:51;20.50;99.90
17762;DHT22;9005;48.838;10.112;2023-08-12T14:12:19;20.50;99.90
17762;DHT22;9005;48.838;10.112;2023-08-12T14:14:46;20.40;99.90
17762;DHT22;9005;48.838;10.112;2023-08-12T14:17:14;20.40;99.90
17762;DHT22;9005;48.838;10.112;2023-08-12T14:19:43;20.60;99.90
17762;DHT22;9005;48.838;10.112;2023-08-12T14:22:10;20.70;99.90
17762;DHT22;9005;48.838;10.112;2023-08-12T14:24:37;20.90;99.90
17762;DHT22;9005;48.838;10.112;2023-08-12T14:27:03;21.00;99.90
17762;DHT22;9005;48.838;10.112;2023-08-12T14:29:31;21.10;99.90
17762;DHT22;9005;48.838;10.112;2023-08-12T14:31:58;21.20;99.90
17762;DHT22;9005;48.838;10.112;2023-08-12T14:34:25;21.10;99.90
17762;DHT22;9005;48.838;10.112;2023-08-12T14:36:52;21.00;99.90
17762;DHT22;9005;48.838;10.112;2023-08-12T14:39:18;20.90;99.90
17762;DHT22;9005;48.838;10.112;2023-08-12T14:44:14;20.70;99.90
17762;DHT22;9005;48.838;10.112;2023-08-12T14:46:42;20.80;99.90
17762;DHT22;9005;48.838;10.112;2023-08-12T14:49:09;21.20;99.90
17762;DHT22;9005;48.838;10.112;2023-08-12T14:51:36;20.90;99.90
17762;DHT22;9005;48.838;10.112;2023-08-12T14:54:03;21.00;99.90
17762;DHT22;9005;48.838;10.112;2023-08-12T14:56:29;21.00;99.90
17762;DHT22;9005;48.838;10.112;2023-08-12T14:58:56;21.10;99.90
17762;DHT22;9005;48.838;10.112;2023-08-12T15:01:23;21.30;99.90
17762;DHT22;9005;48.838;10.112;2023-08-12T15:03:54;21.30;99.90
17762;DHT22;9005;48.838;10.112;2023-08-12T15:06:22;21.40;99.90
17762;DHT22;9005;48.838;10.112;2023-08-12T15:08:49;21.40;99.90
17762;DHT22;9005;48.838;10.112;2023-08-12T15:11:15;21.50;99.90
17762;DHT22;9005;48.838;10.112;2023-08-12T15:13:42;21.80;99.90
17762;DHT22;9005;48.838;10.112;2023-08-12T15:16:09;22.00;99.90
17762;DHT22;9005;48.838;10.112;2023-08-12T15:18:36;22.30;99.90
17762;DHT22;9005;48.838;10.112;2023-08-12T15:21:05;22.50;99.90
17762;DHT22;9005;48.838;10.112;2023-08-12T15:23:31;23.30;99.90
17762;DHT22;9005;48.838;10.112;2023-08-12T15:26:00;23.30;99.90
17762;DHT22;9005;48.838;10.112;2023-08-12T15:28:28;24.20;99.90
17762;DHT22;9005;48.838;10.112;2023-08-12T15:30:55;25.10;99.90
17762;DHT22;9005;48.838;10.112;2023-08-12T15:33:22;25.70;99.90
17762;DHT22;9005;48.838;10.112;2023-08-12T15:35:48;26.20;99.90
17762;DHT22;9005;48.838;10.112;2023-08-12T15:38:17;26.00;99.90
17762;DHT22;9005;48.838;10.112;2023-08-12T15:40:43;26.10;99.90
17762;DHT22;9005;48.838;10.112;2023-08-12T15:43:10;26.20;99.90
17762;DHT22;9005;48.838;10.112;2023-08-12T15:45:37;26.20;99.90
17762;DHT22;9005;48.838;10.112;2023-08-12T15:48:05;26.50;99.90
17762;DHT22;9005;48.838;10.112;2023-08-12T15:50:32;26.60;99.90
17762;DHT22;9005;48.838;10.112;2023-08-12T15:52:59;26.30;99.90
17762;DHT22;9005;48.838;10.112;2023-08-12T15:55:27;26.00;99.90